Jeffersonville, Kentucky
Current Conditions -  °F | °C
As of 5:15 PM on Tuesday 21 Oct 2014 (Local Time) from KIOB Reporting Station
Overcast Overcast  
Wind Chill: 52°   Ceiling: 4900
Heat Index: 52°   Visibility: 10mi
Dew Point: 41°   Wind: 8mph
Humidity: 67%   Direction: 10°N
Pressure: 30.09"   Gusts: NA
Location:  37.97°N, 83.84°W
Report Text: KIOB 212115Z AUTO 01007KT 10SM OVC049 11/05 A3009 RMK AO2
Loading
Personal Weather Stations






























Interactive Weather Map
Tropical Storm Tracking
New forecast layout! Learn more

10-Day Weather Forecast

Advertisements
Track Severe Weather on mobile